createdAt,value
2023-03-03T00:02:18.634Z,1.00
2023-03-03T00:04:46.537Z,1.00
2023-03-03T00:07:15.478Z,1.00
2023-03-03T00:09:43.320Z,1.00
2023-03-03T00:12:24.919Z,0.90
2023-03-03T00:14:53.105Z,0.80
2023-03-03T00:17:24.778Z,0.80
2023-03-03T00:19:53.667Z,0.90
2023-03-03T00:22:30.626Z,1.00
2023-03-03T00:25:01.225Z,1.20
2023-03-03T00:27:32.372Z,1.20
2023-03-03T00:30:01.934Z,1.40
2023-03-03T00:32:39.534Z,1.40
2023-03-03T00:35:25.189Z,1.50
2023-03-03T00:37:57.585Z,1.50
2023-03-03T00:40:26.885Z,1.50
2023-03-03T00:42:58.740Z,1.50
2023-03-03T00:45:33.041Z,1.50
2023-03-03T00:48:17.704Z,1.50
2023-03-03T00:50:45.690Z,1.60
2023-03-03T00:53:17.176Z,1.60
2023-03-03T00:55:46.644Z,1.60
2023-03-03T00:58:16.231Z,1.60
2023-03-03T01:00:44.081Z,1.60
2023-03-03T01:03:15.456Z,1.60
2023-03-03T01:05:43.354Z,1.50
2023-03-03T01:08:11.606Z,1.50
2023-03-03T01:10:43.798Z,1.50
2023-03-03T01:13:12.311Z,1.50
2023-03-03T01:15:42.075Z,1.40
2023-03-03T01:18:11.254Z,1.40
2023-03-03T01:20:40.004Z,1.40
2023-03-03T01:23:08.464Z,1.40
2023-03-03T01:25:36.801Z,1.40
2023-03-03T01:28:05.160Z,1.30
2023-03-03T01:30:33.260Z,1.30
2023-03-03T01:33:02.498Z,1.30
2023-03-03T01:35:30.889Z,1.20
2023-03-03T01:37:59.520Z,1.10
2023-03-03T01:40:29.750Z,1.00
2023-03-03T01:42:57.954Z,0.90
2023-03-03T01:45:28.792Z,0.80
2023-03-03T01:48:05.278Z,0.70
2023-03-03T01:50:39.754Z,0.70
2023-03-03T01:53:14.595Z,0.70
2023-03-03T01:55:43.427Z,0.70
2023-03-03T01:58:14.825Z,0.70
2023-03-03T02:00:46.549Z,0.80
2023-03-03T02:03:15.785Z,0.90
2023-03-03T02:05:44.884Z,0.80
2023-03-03T02:08:16.932Z,0.90
2023-03-03T02:10:45.940Z,0.80
2023-03-03T02:13:13.945Z,0.80
2023-03-03T02:15:41.839Z,0.80
2023-03-03T02:18:14.352Z,0.80
2023-03-03T02:20:53.400Z,0.80
2023-03-03T02:23:26.773Z,0.80
2023-03-03T02:26:06.668Z,0.90
2023-03-03T02:28:36.934Z,0.90
2023-03-03T02:31:06.804Z,0.90
2023-03-03T02:33:34.735Z,0.70
2023-03-03T02:36:02.654Z,0.60
2023-03-03T02:38:36.664Z,0.60
2023-03-03T02:41:12.439Z,0.60
2023-03-03T02:43:47.677Z,0.60
2023-03-03T02:46:15.552Z,0.60
2023-03-03T02:48:43.429Z,0.60
2023-03-03T02:51:11.272Z,0.60
2023-03-03T02:53:39.176Z,0.50
2023-03-03T02:56:09.899Z,0.30
2023-03-03T02:58:38.382Z,0.20
2023-03-03T03:01:06.507Z,0.10
2023-03-03T03:03:34.454Z,0.00
2023-03-03T03:06:02.415Z,0.00
2023-03-03T03:08:30.350Z,0.00
2023-03-03T03:10:58.295Z,0.00
2023-03-03T03:13:27.977Z,-0.10
2023-03-03T03:15:55.862Z,-0.10
2023-03-03T03:18:23.702Z,-0.10
2023-03-03T03:20:51.756Z,0.00
2023-03-03T03:23:21.860Z,0.00
2023-03-03T03:25:49.823Z,0.00
2023-03-03T03:28:19.349Z,0.00
2023-03-03T03:30:48.705Z,0.00
2023-03-03T03:33:16.584Z,0.00
2023-03-03T03:35:47.098Z,0.00
2023-03-03T03:38:15.755Z,0.00
2023-03-03T03:40:44.173Z,0.00
2023-03-03T03:43:12.088Z,0.00
2023-03-03T03:45:40.198Z,0.00
2023-03-03T03:48:09.506Z,0.10
2023-03-03T03:50:38.014Z,0.10
2023-03-03T03:53:06.459Z,0.10
2023-03-03T03:55:34.540Z,0.10
2023-03-03T03:58:02.390Z,0.10
2023-03-03T04:00:30.227Z,0.00
2023-03-03T04:02:58.208Z,-0.10
2023-03-03T04:05:27.525Z,-0.20
2023-03-03T04:07:55.377Z,-0.20
2023-03-03T04:10:23.245Z,-0.30
2023-03-03T04:12:51.141Z,-0.40
2023-03-03T04:15:19.242Z,-0.50
2023-03-03T04:17:47.403Z,-0.50
2023-03-03T04:20:17.147Z,-0.50
2023-03-03T04:22:46.457Z,-0.40
2023-03-03T04:25:16.474Z,-0.40
2023-03-03T04:27:45.099Z,-0.30
2023-03-03T04:30:14.453Z,-0.30
2023-03-03T04:32:42.765Z,-0.30
2023-03-03T04:35:11.857Z,-0.40
2023-03-03T04:37:40.349Z,-0.60
2023-03-03T04:40:11.323Z,-0.70
2023-03-03T04:42:39.226Z,-0.80
2023-03-03T04:45:08.244Z,-0.90
2023-03-03T04:47:36.342Z,-0.90
2023-03-03T04:50:04.952Z,-0.90
2023-03-03T04:52:32.846Z,-0.90
2023-03-03T04:55:00.686Z,-1.00
2023-03-03T04:57:29.916Z,-1.10
2023-03-03T04:59:57.732Z,-1.10
2023-03-03T05:02:25.691Z,-1.10
2023-03-03T05:04:53.909Z,-1.10
2023-03-03T05:07:21.998Z,-1.10
2023-03-03T05:09:49.832Z,-1.20
2023-03-03T05:12:18.067Z,-1.20
2023-03-03T05:14:47.262Z,-1.30
2023-03-03T05:17:15.212Z,-1.30
2023-03-03T05:19:43.118Z,-1.30
2023-03-03T05:22:11.027Z,-1.40
2023-03-03T05:24:38.854Z,-1.30
2023-03-03T05:27:06.667Z,-1.30
2023-03-03T05:29:34.501Z,-1.30
2023-03-03T05:32:03.918Z,-1.20
2023-03-03T05:34:31.765Z,-1.20
2023-03-03T05:37:00.422Z,-1.20
2023-03-03T05:39:28.271Z,-1.30
2023-03-03T05:41:56.900Z,-1.40
2023-03-03T05:44:24.815Z,-1.50
2023-03-03T05:46:52.706Z,-1.50
2023-03-03T05:49:21.894Z,-1.50
2023-03-03T05:51:49.775Z,-1.50
2023-03-03T05:54:17.609Z,-1.50
2023-03-03T05:56:45.560Z,-1.50
2023-03-03T05:59:13.442Z,-1.60
2023-03-03T06:01:41.328Z,-1.60
2023-03-03T06:04:09.848Z,-1.70
2023-03-03T06:06:39.056Z,-1.60
2023-03-03T06:09:06.987Z,-1.60
2023-03-03T06:11:34.863Z,-1.60
2023-03-03T06:14:02.753Z,-1.80
2023-03-03T06:16:30.611Z,-1.70
2023-03-03T06:18:58.482Z,-1.60
2023-03-03T06:21:26.471Z,-1.60
2023-03-03T06:23:55.751Z,-1.60
2023-03-03T06:26:23.808Z,-1.50
2023-03-03T06:28:54.090Z,-1.40
2023-03-03T06:31:22.179Z,-1.30
2023-03-03T06:33:51.582Z,-1.10
2023-03-03T06:36:20.000Z,-0.90
2023-03-03T06:38:47.990Z,-0.70
2023-03-03T06:41:17.177Z,-0.40
2023-03-03T06:43:45.652Z,-0.20
2023-03-03T06:46:13.702Z,0.00
2023-03-03T06:48:42.025Z,0.20
2023-03-03T06:51:23.240Z,0.50
2023-03-03T06:53:53.774Z,0.80
2023-03-03T06:56:24.925Z,1.10
2023-03-03T06:58:56.117Z,1.40
2023-03-03T07:01:24.322Z,1.60
2023-03-03T07:03:52.320Z,1.90
2023-03-03T07:06:25.388Z,2.20
2023-03-03T07:08:53.858Z,2.50
2023-03-03T07:11:24.834Z,2.70
2023-03-03T07:13:54.749Z,3.00
2023-03-03T07:16:27.070Z,3.20
2023-03-03T07:18:58.376Z,3.50
2023-03-03T07:21:32.363Z,3.80
2023-03-03T07:24:02.320Z,4.00
2023-03-03T07:26:33.932Z,4.40
2023-03-03T07:29:04.362Z,4.70
2023-03-03T07:31:36.682Z,5.10
2023-03-03T07:34:18.018Z,5.40
2023-03-03T07:36:46.066Z,5.80
2023-03-03T07:39:40.839Z,6.00
2023-03-03T07:42:22.320Z,6.40
2023-03-03T07:44:53.237Z,6.50
2023-03-03T07:47:25.289Z,6.60
2023-03-03T07:49:54.822Z,6.70
2023-03-03T07:52:32.698Z,6.70
2023-03-03T07:55:03.655Z,6.90
2023-03-03T07:57:37.787Z,6.90
2023-03-03T08:00:51.479Z,7.00
2023-03-03T08:03:21.115Z,7.00
2023-03-03T08:05:52.239Z,7.20
2023-03-03T08:08:30.578Z,7.30
2023-03-03T08:10:59.522Z,7.70
2023-03-03T08:13:38.255Z,7.90
2023-03-03T08:16:28.498Z,8.10
2023-03-03T08:18:59.331Z,8.30
2023-03-03T08:21:28.353Z,8.30
2023-03-03T08:23:56.286Z,8.30
2023-03-03T08:26:25.439Z,8.60
2023-03-03T08:28:55.795Z,8.80
2023-03-03T08:31:39.942Z,9.00
2023-03-03T08:34:08.591Z,9.20
2023-03-03T08:36:36.560Z,9.20
2023-03-03T08:39:05.664Z,9.30
2023-03-03T08:41:33.652Z,9.40
2023-03-03T08:44:02.931Z,9.80
2023-03-03T08:46:30.832Z,9.90
2023-03-03T08:48:58.681Z,10.20
2023-03-03T08:51:26.729Z,10.40
2023-03-03T08:53:54.652Z,10.50
2023-03-03T08:56:22.723Z,10.70
2023-03-03T08:59:01.885Z,10.80
2023-03-03T09:01:31.903Z,10.80
2023-03-03T09:04:00.091Z,10.80
2023-03-03T09:06:28.171Z,11.10
2023-03-03T09:08:56.131Z,11.30
2023-03-03T09:11:27.487Z,11.60
2023-03-03T09:14:03.879Z,11.60
2023-03-03T09:16:38.362Z,11.80
2023-03-03T09:19:19.649Z,11.60
2023-03-03T09:21:47.716Z,11.70
2023-03-03T09:24:25.333Z,11.60
2023-03-03T09:26:54.923Z,11.70
2023-03-03T09:29:28.044Z,11.90
2023-03-03T09:31:59.106Z,12.20
2023-03-03T09:34:38.243Z,12.40
2023-03-03T09:37:19.859Z,12.30
2023-03-03T09:39:51.369Z,12.40
2023-03-03T09:42:52.405Z,12.00
2023-03-03T09:45:52.269Z,11.70
2023-03-03T09:48:41.086Z,11.80
2023-03-03T09:51:23.866Z,11.90
2023-03-03T09:54:16.144Z,12.30
2023-03-03T09:56:48.032Z,12.50
2023-03-03T09:59:33.479Z,12.50
2023-03-03T10:02:23.396Z,12.60
2023-03-03T10:05:15.605Z,12.20
2023-03-03T10:07:53.941Z,11.50
2023-03-03T10:10:46.832Z,11.30
2023-03-03T10:13:27.364Z,11.70
2023-03-03T10:16:12.271Z,12.00
2023-03-03T10:18:49.683Z,12.50
2023-03-03T10:21:26.414Z,13.00
2023-03-03T10:23:59.153Z,13.50
2023-03-03T10:27:05.302Z,13.40
2023-03-03T10:29:40.406Z,13.10
2023-03-03T10:32:36.760Z,13.40
2023-03-03T10:35:20.925Z,13.50
2023-03-03T10:38:07.006Z,13.60
2023-03-03T10:40:40.138Z,13.20
2023-03-03T10:43:32.079Z,12.90
2023-03-03T10:46:21.718Z,12.80
2023-03-03T10:49:11.134Z,12.90
2023-03-03T10:51:52.035Z,13.30
2023-03-03T10:54:31.432Z,13.60
2023-03-03T10:57:03.527Z,13.90
2023-03-03T10:59:45.134Z,14.00
2023-03-03T11:02:19.714Z,14.30
2023-03-03T11:05:16.375Z,14.60
2023-03-03T11:07:47.349Z,14.90
2023-03-03T11:10:28.828Z,15.10
2023-03-03T11:13:10.905Z,15.20
2023-03-03T11:15:51.693Z,15.40
2023-03-03T11:18:34.561Z,15.00
2023-03-03T11:21:14.366Z,14.10
2023-03-03T11:23:59.804Z,14.00
2023-03-03T11:27:00.019Z,14.30
2023-03-03T11:29:45.450Z,14.40
2023-03-03T11:32:23.463Z,14.70
2023-03-03T11:35:05.355Z,14.00
2023-03-03T11:37:43.062Z,14.00
2023-03-03T11:40:18.022Z,13.80
2023-03-03T11:43:01.344Z,13.50
2023-03-03T11:45:35.379Z,14.00
2023-03-03T11:48:09.510Z,14.20
2023-03-03T11:50:44.474Z,14.40
2023-03-03T11:53:26.063Z,14.50
2023-03-03T11:55:58.819Z,14.80
2023-03-03T11:58:32.779Z,15.10
2023-03-03T12:01:11.438Z,15.30
2023-03-03T12:03:44.708Z,15.60
2023-03-03T12:06:22.872Z,15.60
2023-03-03T12:09:12.868Z,15.80
2023-03-03T12:11:49.312Z,16.00
2023-03-03T12:14:34.200Z,15.90
2023-03-03T12:17:05.795Z,16.10
2023-03-03T12:19:39.209Z,15.90
2023-03-03T12:22:17.857Z,15.40
2023-03-03T12:25:07.606Z,15.00
2023-03-03T12:27:44.128Z,14.60
2023-03-03T12:30:25.321Z,14.70
2023-03-03T12:33:05.608Z,14.70
2023-03-03T12:35:41.048Z,14.90
2023-03-03T12:38:17.377Z,14.90
2023-03-03T12:40:53.704Z,15.30
2023-03-03T12:43:37.323Z,15.10
2023-03-03T12:46:15.696Z,15.20
2023-03-03T12:48:45.597Z,15.50
2023-03-03T12:51:24.032Z,15.50
2023-03-03T12:54:23.104Z,15.50
2023-03-03T12:56:55.691Z,15.20
2023-03-03T12:59:32.516Z,15.30
2023-03-03T13:02:21.317Z,15.30
2023-03-03T13:04:57.597Z,14.90
2023-03-03T13:07:33.161Z,14.90
2023-03-03T13:10:10.274Z,14.60
2023-03-03T13:12:44.511Z,14.50
2023-03-03T13:15:18.249Z,14.40
2023-03-03T13:17:59.890Z,14.60
2023-03-03T13:20:39.093Z,14.80
2023-03-03T13:23:13.506Z,15.00
2023-03-03T13:25:50.447Z,15.30
2023-03-03T13:28:27.692Z,15.40
2023-03-03T13:31:02.337Z,15.40
2023-03-03T13:33:35.199Z,15.30
2023-03-03T13:36:06.033Z,15.30
2023-03-03T13:38:37.716Z,15.30
2023-03-03T13:41:11.971Z,15.00
2023-03-03T13:43:47.472Z,15.00
2023-03-03T13:46:24.060Z,14.50
2023-03-03T13:49:33.943Z,14.40
2023-03-03T13:52:06.643Z,14.40
2023-03-03T13:54:52.475Z,14.50
2023-03-03T13:57:31.040Z,14.40
2023-03-03T14:00:07.912Z,14.60
2023-03-03T14:02:48.520Z,14.60
2023-03-03T14:05:24.653Z,14.50
2023-03-03T14:07:58.428Z,14.50
2023-03-03T14:10:32.405Z,14.60
2023-03-03T14:13:06.312Z,14.70
2023-03-03T14:15:37.740Z,14.50
2023-03-03T14:18:25.763Z,14.60
2023-03-03T14:20:57.990Z,14.60
2023-03-03T14:23:33.370Z,14.30
2023-03-03T14:26:09.335Z,13.60
2023-03-03T14:28:41.759Z,13.30
2023-03-03T14:31:19.551Z,13.40
2023-03-03T14:33:58.741Z,13.20
2023-03-03T14:36:33.230Z,12.90
2023-03-03T14:39:01.928Z,12.30
2023-03-03T14:41:39.832Z,12.30
2023-03-03T14:44:27.474Z,12.30
2023-03-03T14:47:23.727Z,12.30
2023-03-03T14:49:52.264Z,12.30
2023-03-03T14:52:25.289Z,12.20
2023-03-03T14:54:55.096Z,11.90
2023-03-03T14:57:41.658Z,11.70
2023-03-03T15:00:29.246Z,11.60
2023-03-03T15:03:04.717Z,11.40
2023-03-03T15:05:33.957Z,11.40
2023-03-03T15:08:12.349Z,11.40
2023-03-03T15:10:41.954Z,11.20
2023-03-03T15:13:32.228Z,11.00
2023-03-03T15:16:10.424Z,10.90
2023-03-03T15:19:17.126Z,11.00
2023-03-03T15:21:56.432Z,10.70
2023-03-03T15:24:32.618Z,10.80
2023-03-03T15:27:05.475Z,10.80
2023-03-03T15:29:38.927Z,10.70
2023-03-03T15:32:16.336Z,10.50
2023-03-03T15:34:48.912Z,10.40
2023-03-03T15:37:31.508Z,10.40
2023-03-03T15:40:10.462Z,10.30
2023-03-03T15:42:46.762Z,10.10
2023-03-03T15:45:26.188Z,10.10
2023-03-03T15:48:12.698Z,10.10
2023-03-03T15:50:52.875Z,10.00
2023-03-03T15:53:32.657Z,10.00
2023-03-03T15:56:21.637Z,10.00
2023-03-03T15:59:30.968Z,10.00
2023-03-03T16:02:11.770Z,9.80
2023-03-03T16:04:45.898Z,9.60
2023-03-03T16:07:24.774Z,9.30
2023-03-03T16:10:01.268Z,9.20
2023-03-03T16:12:42.132Z,9.20
2023-03-03T16:15:22.547Z,9.20
2023-03-03T16:18:00.041Z,9.10
2023-03-03T16:20:34.463Z,9.10
2023-03-03T16:23:18.468Z,9.10
2023-03-03T16:26:01.895Z,9.00
2023-03-03T16:28:43.335Z,8.80
2023-03-03T16:31:14.616Z,8.80
2023-03-03T16:33:50.542Z,8.70
2023-03-03T16:36:29.295Z,8.60
2023-03-03T16:39:04.335Z,8.50
2023-03-03T16:41:43.166Z,8.40
2023-03-03T16:44:25.916Z,8.30
2023-03-03T16:46:57.511Z,8.10
2023-03-03T16:49:31.608Z,7.90
2023-03-03T16:52:06.599Z,7.90
2023-03-03T16:54:39.486Z,7.80
2023-03-03T16:57:17.335Z,7.70
2023-03-03T17:00:01.615Z,7.70
2023-03-03T17:02:46.505Z,7.60
2023-03-03T17:05:25.744Z,7.50
2023-03-03T17:08:06.688Z,7.40
2023-03-03T17:10:41.361Z,7.20
2023-03-03T17:13:25.286Z,7.10
2023-03-03T17:16:05.158Z,7.10
2023-03-03T17:18:43.844Z,6.80
2023-03-03T17:21:22.793Z,6.60
2023-03-03T17:24:03.326Z,6.40
2023-03-03T17:26:41.296Z,6.20
2023-03-03T17:29:27.801Z,6.00
2023-03-03T17:32:03.450Z,5.80
2023-03-03T17:34:43.746Z,5.60
2023-03-03T17:37:22.925Z,5.50
2023-03-03T17:40:12.487Z,5.40
2023-03-03T17:42:48.933Z,5.30
2023-03-03T17:45:18.732Z,5.00
2023-03-03T17:48:08.124Z,4.80
2023-03-03T17:50:58.922Z,4.70
2023-03-03T17:53:53.424Z,4.60
2023-03-03T17:56:25.007Z,4.60
2023-03-03T17:59:17.640Z,4.60
2023-03-03T18:02:09.180Z,4.50
2023-03-03T18:04:57.232Z,4.40
2023-03-03T18:07:46.853Z,4.30
2023-03-03T18:10:41.390Z,4.20
2023-03-03T18:13:35.037Z,4.10
2023-03-03T18:16:13.365Z,3.80
2023-03-03T18:18:56.913Z,3.60
2023-03-03T18:21:29.909Z,3.30
2023-03-03T18:24:26.790Z,3.20
2023-03-03T18:26:56.448Z,3.10
2023-03-03T18:29:28.799Z,3.00
2023-03-03T18:32:17.209Z,2.90
2023-03-03T18:34:45.390Z,2.80
2023-03-03T18:37:39.256Z,2.80
2023-03-03T18:40:28.867Z,2.80
2023-03-03T18:42:57.008Z,2.70
2023-03-03T18:45:51.022Z,2.50
2023-03-03T18:48:20.111Z,2.30
2023-03-03T18:50:49.708Z,2.30
2023-03-03T18:53:25.615Z,2.40
2023-03-03T18:55:55.451Z,2.30
2023-03-03T18:58:42.002Z,2.30
2023-03-03T19:01:42.934Z,2.20
2023-03-03T19:04:22.591Z,2.00
2023-03-03T19:07:16.007Z,1.80
2023-03-03T19:09:58.053Z,1.80
2023-03-03T19:12:54.363Z,1.80
2023-03-03T19:15:49.857Z,1.80
2023-03-03T19:18:23.810Z,1.90
2023-03-03T19:20:57.092Z,1.90
2023-03-03T19:23:34.850Z,1.90
2023-03-03T19:26:32.886Z,1.90
2023-03-03T19:29:12.194Z,1.80
2023-03-03T19:31:49.270Z,1.60
2023-03-03T19:34:24.093Z,1.50
2023-03-03T19:37:03.776Z,1.30
2023-03-03T19:39:54.013Z,1.20
2023-03-03T19:42:34.838Z,1.20
2023-03-03T19:45:20.136Z,1.20
2023-03-03T19:47:53.114Z,1.20
2023-03-03T19:50:34.491Z,1.20
2023-03-03T19:53:14.100Z,1.20
2023-03-03T19:55:52.400Z,1.10
2023-03-03T19:58:32.691Z,1.10
2023-03-03T20:01:08.794Z,1.10
2023-03-03T20:03:59.432Z,1.00
2023-03-03T20:06:37.993Z,1.00
2023-03-03T20:09:17.572Z,0.90
2023-03-03T20:11:59.213Z,0.90
2023-03-03T20:14:45.901Z,0.90
2023-03-03T20:17:29.522Z,0.90
2023-03-03T20:20:04.475Z,0.90
2023-03-03T20:22:41.481Z,0.80
2023-03-03T20:25:24.622Z,0.80
2023-03-03T20:28:02.766Z,0.80
2023-03-03T20:30:52.084Z,0.90
2023-03-03T20:33:33.170Z,0.80
2023-03-03T20:36:11.324Z,0.70
2023-03-03T20:38:50.640Z,0.50
2023-03-03T20:41:29.125Z,0.30
2023-03-03T20:44:10.051Z,0.20
2023-03-03T20:46:53.007Z,0.10
2023-03-03T20:49:34.176Z,0.10
2023-03-03T20:52:08.382Z,0.10
2023-03-03T20:54:43.959Z,0.10
2023-03-03T20:57:19.901Z,0.00
2023-03-03T20:59:56.046Z,0.00
2023-03-03T21:02:31.666Z,0.00
2023-03-03T21:05:13.482Z,0.00
2023-03-03T21:07:52.723Z,0.00
2023-03-03T21:10:24.263Z,0.10
2023-03-03T21:12:53.638Z,0.00
2023-03-03T21:15:27.700Z,0.10
2023-03-03T21:17:58.195Z,0.10
2023-03-03T21:20:29.965Z,0.10
2023-03-03T21:22:58.992Z,0.00
2023-03-03T21:25:47.830Z,-0.20
2023-03-03T21:28:21.995Z,-0.20
2023-03-03T21:31:04.715Z,-0.30
2023-03-03T21:33:52.155Z,-0.40
2023-03-03T21:36:23.236Z,-0.40
2023-03-03T21:38:52.455Z,-0.40
2023-03-03T21:41:21.223Z,-0.50
2023-03-03T21:43:51.593Z,-0.40
2023-03-03T21:46:20.609Z,-0.50
2023-03-03T21:48:50.050Z,-0.50
2023-03-03T21:51:20.306Z,-0.50
2023-03-03T21:53:48.234Z,-0.50
2023-03-03T21:56:16.093Z,-0.50
2023-03-03T21:58:44.164Z,-0.50
2023-03-03T22:01:12.162Z,-0.50
2023-03-03T22:03:40.621Z,-0.50
2023-03-03T22:06:09.994Z,-0.50
2023-03-03T22:08:37.875Z,-0.50
2023-03-03T22:11:05.985Z,-0.70
2023-03-03T22:13:33.817Z,-0.70
2023-03-03T22:16:01.695Z,-0.80
2023-03-03T22:18:29.562Z,-0.90
2023-03-03T22:20:57.460Z,-1.00
2023-03-03T22:23:26.827Z,-1.00
2023-03-03T22:25:54.705Z,-1.00
2023-03-03T22:28:22.560Z,-1.00
2023-03-03T22:30:51.178Z,-1.00
2023-03-03T22:33:19.072Z,-1.10
2023-03-03T22:35:46.975Z,-1.10
2023-03-03T22:38:15.139Z,-1.10
2023-03-03T22:40:44.848Z,-1.10
2023-03-03T22:43:14.557Z,-1.10
2023-03-03T22:45:42.421Z,-1.20
2023-03-03T22:48:10.288Z,-1.20
2023-03-03T22:50:39.584Z,-1.20
2023-03-03T22:53:07.607Z,-1.10
2023-03-03T22:55:37.086Z,-1.20
2023-03-03T22:58:09.220Z,-1.30
2023-03-03T23:00:39.071Z,-1.30
2023-03-03T23:03:07.113Z,-1.40
2023-03-03T23:05:35.797Z,-1.40
2023-03-03T23:08:04.296Z,-1.40
2023-03-03T23:10:32.216Z,-1.40
2023-03-03T23:13:00.099Z,-1.50
2023-03-03T23:15:29.459Z,-1.60
2023-03-03T23:17:57.364Z,-1.60
2023-03-03T23:20:27.291Z,-1.60
2023-03-03T23:22:55.219Z,-1.60
2023-03-03T23:25:24.030Z,-1.70
2023-03-03T23:27:52.588Z,-1.70
2023-03-03T23:30:22.518Z,-1.70
2023-03-03T23:32:52.171Z,-1.70
2023-03-03T23:35:21.151Z,-1.70
2023-03-03T23:37:49.199Z,-1.70
2023-03-03T23:40:18.248Z,-1.70
2023-03-03T23:42:46.233Z,-1.60
2023-03-03T23:45:14.726Z,-1.70
2023-03-03T23:47:43.416Z,-1.60
2023-03-03T23:50:14.496Z,-1.60
2023-03-03T23:52:42.417Z,-1.60
2023-03-03T23:55:11.188Z,-1.70
2023-03-03T23:57:39.078Z,-1.80
